createdAt,value
2023-12-09T00:00:29.130Z,34.25
2023-12-09T00:02:55.838Z,34.17
2023-12-09T00:05:22.501Z,27.85
2023-12-09T00:07:49.146Z,39.17
2023-12-09T00:10:15.774Z,39.17
2023-12-09T00:12:42.597Z,30.20
2023-12-09T00:15:11.051Z,46.10
2023-12-09T00:17:37.921Z,32.63
2023-12-09T00:20:06.408Z,36.25
2023-12-09T00:22:33.513Z,34.08
2023-12-09T00:25:00.778Z,31.88
2023-12-09T00:27:27.557Z,35.07
2023-12-09T00:29:54.360Z,32.03
2023-12-09T00:32:21.056Z,28.95
2023-12-09T00:34:47.720Z,38.20
2023-12-09T00:37:14.312Z,34.35
2023-12-09T00:39:40.957Z,35.73
2023-12-09T00:42:07.826Z,32.88
2023-12-09T00:44:34.475Z,32.58
2023-12-09T00:47:01.092Z,31.02
2023-12-09T00:49:27.801Z,39.50
2023-12-09T00:51:54.463Z,34.37
2023-12-09T00:54:21.076Z,44.28
2023-12-09T00:56:47.741Z,32.35
2023-12-09T00:59:14.354Z,40.90
2023-12-09T01:01:41.119Z,34.00
2023-12-09T01:04:07.864Z,34.63
2023-12-09T01:06:34.588Z,32.88
2023-12-09T01:09:01.381Z,32.72
2023-12-09T01:11:28.462Z,39.47
2023-12-09T01:13:55.094Z,36.08
2023-12-09T01:16:21.708Z,33.10
2023-12-09T01:18:48.425Z,39.95
2023-12-09T01:21:15.179Z,31.27
2023-12-09T01:23:41.854Z,34.38
2023-12-09T01:26:09.004Z,38.38
2023-12-09T01:28:35.589Z,32.50
2023-12-09T01:31:02.255Z,36.35
2023-12-09T01:33:28.931Z,33.90
2023-12-09T01:35:55.713Z,35.78
2023-12-09T01:38:22.382Z,31.00
2023-12-09T01:40:55.811Z,27.40
2023-12-09T01:43:23.176Z,38.55
2023-12-09T01:45:51.435Z,25.35
2023-12-09T01:48:18.880Z,32.80
2023-12-09T01:50:45.840Z,36.50
2023-12-09T01:53:12.472Z,31.13
2023-12-09T01:55:40.475Z,41.10
2023-12-09T01:58:07.077Z,35.58
2023-12-09T02:00:34.036Z,28.05
2023-12-09T02:03:00.882Z,34.70
2023-12-09T02:05:28.023Z,38.00
2023-12-09T02:07:54.665Z,28.83
2023-12-09T02:10:21.404Z,34.20
2023-12-09T02:13:04.941Z,29.75
2023-12-09T02:15:38.929Z,31.58
2023-12-09T02:18:06.670Z,29.20
2023-12-09T02:20:33.633Z,32.53
2023-12-09T02:23:13.045Z,43.83
2023-12-09T02:25:40.873Z,24.25
2023-12-09T02:28:15.237Z,36.15
2023-12-09T02:30:51.789Z,27.70
2023-12-09T02:33:19.677Z,38.78
2023-12-09T02:35:47.854Z,27.20
2023-12-09T02:38:15.246Z,32.47
2023-12-09T02:40:42.389Z,30.40
2023-12-09T02:43:09.672Z,23.60
2023-12-09T02:45:37.071Z,34.10
2023-12-09T02:48:04.971Z,26.40
2023-12-09T02:50:31.829Z,35.17
2023-12-09T02:52:58.432Z,33.35
2023-12-09T02:55:25.181Z,35.50
2023-12-09T02:57:51.863Z,31.80
2023-12-09T03:00:18.582Z,29.63
2023-12-09T03:02:45.289Z,29.63
2023-12-09T03:05:11.990Z,25.30
2023-12-09T03:07:38.667Z,38.47
2023-12-09T03:10:05.566Z,32.92
2023-12-09T03:12:32.687Z,41.35
2023-12-09T03:14:59.461Z,31.13
2023-12-09T03:17:26.106Z,33.63
2023-12-09T03:19:52.742Z,35.67
2023-12-09T03:22:19.576Z,39.33
2023-12-09T03:24:46.240Z,31.90
2023-12-09T03:27:12.907Z,31.77
2023-12-09T03:29:39.609Z,34.65
2023-12-09T03:32:06.276Z,33.87
2023-12-09T03:34:32.949Z,30.38
2023-12-09T03:36:59.670Z,30.45
2023-12-09T03:39:26.385Z,30.77
2023-12-09T03:41:53.218Z,26.83
2023-12-09T03:44:19.832Z,35.67
2023-12-09T03:46:46.437Z,25.42
2023-12-09T03:49:13.256Z,35.33
2023-12-09T03:51:40.040Z,31.98
2023-12-09T03:54:06.698Z,37.45
2023-12-09T03:56:33.574Z,29.23
2023-12-09T03:59:01.378Z,30.98
2023-12-09T04:01:28.053Z,34.13
2023-12-09T04:03:55.157Z,33.88
2023-12-09T04:06:22.540Z,28.30
2023-12-09T04:08:49.208Z,30.87
2023-12-09T04:11:15.789Z,35.63
2023-12-09T04:13:42.491Z,35.28
2023-12-09T04:16:09.660Z,34.15
2023-12-09T04:18:37.400Z,27.83
2023-12-09T04:21:04.796Z,44.57
2023-12-09T04:23:31.459Z,34.65
2023-12-09T04:25:58.054Z,29.20
2023-12-09T04:28:24.657Z,33.95
2023-12-09T04:30:51.281Z,38.97
2023-12-09T04:33:17.952Z,27.93
2023-12-09T04:35:44.627Z,29.27
2023-12-09T04:38:11.253Z,27.98
2023-12-09T04:40:37.850Z,29.70
2023-12-09T04:43:04.859Z,35.90
2023-12-09T04:45:31.515Z,27.37
2023-12-09T04:47:58.288Z,34.08
2023-12-09T04:50:25.008Z,32.42
2023-12-09T04:52:51.707Z,28.70
2023-12-09T04:55:18.565Z,33.33
2023-12-09T04:57:45.164Z,24.87
2023-12-09T05:00:12.592Z,26.85
2023-12-09T05:02:39.420Z,29.70
2023-12-09T05:05:06.163Z,26.05
2023-12-09T05:07:33.146Z,27.08
2023-12-09T05:09:59.842Z,25.77
2023-12-09T05:12:28.099Z,28.25
2023-12-09T05:14:55.111Z,38.55
2023-12-09T05:17:21.797Z,25.38
2023-12-09T05:19:48.586Z,25.80
2023-12-09T05:22:16.060Z,27.73
2023-12-09T05:24:42.952Z,28.33
2023-12-09T05:27:09.624Z,27.50
2023-12-09T05:29:36.262Z,28.20
2023-12-09T05:32:04.087Z,28.27
2023-12-09T05:34:30.930Z,23.53
2023-12-09T05:36:57.571Z,30.23
2023-12-09T05:39:24.256Z,29.63
2023-12-09T05:41:50.929Z,29.95
2023-12-09T05:44:17.538Z,32.45
2023-12-09T05:46:44.204Z,30.13
2023-12-09T05:49:10.911Z,30.58
2023-12-09T05:51:37.916Z,26.30
2023-12-09T05:54:04.598Z,30.60
2023-12-09T05:56:31.251Z,31.92
2023-12-09T05:58:57.974Z,24.57
2023-12-09T06:01:24.656Z,30.17
2023-12-09T06:03:51.319Z,26.58
2023-12-09T06:06:18.087Z,27.02
2023-12-09T06:08:44.849Z,31.25
2023-12-09T06:11:11.694Z,23.33
2023-12-09T06:13:38.405Z,29.80
2023-12-09T06:16:05.156Z,22.05
2023-12-09T06:18:31.927Z,21.92
2023-12-09T06:20:58.729Z,25.63
2023-12-09T06:23:25.420Z,27.02
2023-12-09T06:25:52.083Z,26.38
2023-12-09T06:28:18.701Z,26.80
2023-12-09T06:30:45.589Z,19.60
2023-12-09T06:33:12.356Z,29.60
2023-12-09T06:35:39.228Z,23.77
2023-12-09T06:38:05.826Z,28.75
2023-12-09T06:40:32.447Z,27.73
2023-12-09T06:42:59.082Z,24.23
2023-12-09T06:45:25.883Z,28.85
2023-12-09T06:47:55.360Z,32.60
2023-12-09T06:50:22.505Z,25.13
2023-12-09T06:52:49.460Z,22.77
2023-12-09T06:55:16.219Z,31.38
2023-12-09T06:57:42.953Z,20.45
2023-12-09T07:00:10.040Z,26.40
2023-12-09T07:02:45.039Z,24.75
2023-12-09T07:05:20.168Z,23.63
2023-12-09T07:07:47.060Z,22.25
2023-12-09T07:10:14.806Z,23.65
2023-12-09T07:12:42.094Z,19.57
2023-12-09T07:15:09.478Z,29.38
2023-12-09T07:17:36.305Z,18.67
2023-12-09T07:20:06.988Z,20.15
2023-12-09T07:22:33.744Z,23.35
2023-12-09T07:25:00.350Z,19.60
2023-12-09T07:27:26.996Z,16.90
2023-12-09T07:29:53.647Z,24.60
2023-12-09T07:32:20.326Z,21.35
2023-12-09T07:34:47.117Z,20.75
2023-12-09T07:37:15.888Z,19.33
2023-12-09T07:39:43.414Z,19.23
2023-12-09T07:42:10.108Z,21.63
2023-12-09T07:44:36.904Z,16.27
2023-12-09T07:47:03.511Z,20.70
2023-12-09T07:49:30.214Z,19.80
2023-12-09T07:51:56.852Z,19.65
2023-12-09T07:54:23.465Z,24.33
2023-12-09T07:56:50.087Z,21.33
2023-12-09T07:59:16.727Z,15.85
2023-12-09T08:01:43.365Z,17.90
2023-12-09T08:04:10.529Z,18.23
2023-12-09T08:06:37.521Z,15.98
2023-12-09T08:09:04.379Z,19.90
2023-12-09T08:11:31.176Z,16.13
2023-12-09T08:13:57.881Z,18.20
2023-12-09T08:16:24.526Z,17.67
2023-12-09T08:18:51.343Z,17.55
2023-12-09T08:21:18.106Z,24.25
2023-12-09T08:23:44.772Z,18.73
2023-12-09T08:26:17.003Z,19.90
2023-12-09T08:28:43.677Z,18.95
2023-12-09T08:31:10.316Z,15.93
2023-12-09T08:33:37.114Z,10.88
2023-12-09T08:36:03.999Z,13.95
2023-12-09T08:38:30.724Z,17.57
2023-12-09T08:40:57.356Z,19.83
2023-12-09T08:43:24.613Z,19.55
2023-12-09T08:45:51.314Z,16.17
2023-12-09T08:48:19.087Z,18.20
2023-12-09T08:50:45.878Z,21.40
2023-12-09T08:53:13.498Z,21.70
2023-12-09T08:55:40.123Z,13.57
2023-12-09T08:58:06.773Z,11.90
2023-12-09T09:00:33.414Z,13.93
2023-12-09T09:03:00.226Z,9.73
2023-12-09T09:05:27.067Z,12.18
2023-12-09T09:07:53.842Z,14.48
2023-12-09T09:10:20.706Z,12.02
2023-12-09T09:12:48.410Z,11.52
2023-12-09T09:15:17.223Z,15.20
2023-12-09T09:17:43.978Z,12.60
2023-12-09T09:20:11.819Z,17.42
2023-12-09T09:22:38.776Z,10.00
2023-12-09T09:25:05.919Z,12.05
2023-12-09T09:27:32.654Z,10.13
2023-12-09T09:29:59.439Z,13.85
2023-12-09T09:32:26.526Z,11.70
2023-12-09T09:34:53.711Z,12.05
2023-12-09T09:37:20.515Z,14.65
2023-12-09T09:39:48.274Z,14.03
2023-12-09T09:42:24.099Z,15.15
2023-12-09T09:45:22.144Z,18.77
2023-12-09T09:47:50.505Z,15.05
2023-12-09T09:50:20.340Z,12.02
2023-12-09T09:52:48.224Z,11.67
2023-12-09T09:55:15.802Z,10.70
2023-12-09T09:57:43.906Z,14.20
2023-12-09T10:00:15.380Z,12.38
2023-12-09T10:02:46.868Z,17.13
2023-12-09T10:05:14.938Z,12.23
2023-12-09T10:07:41.642Z,10.43
2023-12-09T10:10:08.770Z,12.35
2023-12-09T10:12:38.543Z,12.48
2023-12-09T10:15:06.092Z,11.30
2023-12-09T10:17:32.986Z,10.63
2023-12-09T10:20:00.062Z,10.10
2023-12-09T10:22:27.660Z,9.80
2023-12-09T10:24:55.405Z,7.85
2023-12-09T10:27:26.376Z,10.73
2023-12-09T10:29:53.753Z,12.67
2023-12-09T10:32:24.041Z,10.80
2023-12-09T10:34:51.596Z,9.32
2023-12-09T10:37:18.751Z,10.93
2023-12-09T10:39:46.730Z,12.18
2023-12-09T10:42:13.767Z,11.73
2023-12-09T10:44:40.976Z,11.23
2023-12-09T10:47:08.250Z,9.05
2023-12-09T10:49:35.629Z,11.38
2023-12-09T10:52:02.764Z,12.48
2023-12-09T10:54:29.491Z,10.13
2023-12-09T10:56:56.172Z,6.93
2023-12-09T10:59:22.798Z,9.52
2023-12-09T11:01:49.465Z,9.50
2023-12-09T11:04:16.541Z,10.65
2023-12-09T11:06:46.196Z,6.80
2023-12-09T11:09:15.106Z,8.55
2023-12-09T11:11:44.767Z,9.82
2023-12-09T11:14:11.680Z,12.65
2023-12-09T11:16:43.457Z,9.63
2023-12-09T11:19:17.948Z,11.75
2023-12-09T11:21:48.601Z,8.93
2023-12-09T11:24:16.822Z,14.52
2023-12-09T11:26:48.538Z,8.52
2023-12-09T11:29:18.190Z,9.77
2023-12-09T11:31:50.430Z,9.13
2023-12-09T11:34:19.544Z,7.45
2023-12-09T11:36:47.530Z,7.38
2023-12-09T11:39:19.073Z,8.00
2023-12-09T11:41:46.472Z,10.18
2023-12-09T11:44:14.404Z,8.70
2023-12-09T11:46:41.390Z,15.88
2023-12-09T11:49:09.036Z,10.55
2023-12-09T11:51:36.677Z,12.02
2023-12-09T11:54:05.394Z,8.98
2023-12-09T11:56:32.545Z,8.03
2023-12-09T11:58:59.175Z,7.53
2023-12-09T12:01:26.730Z,6.05
2023-12-09T12:03:53.728Z,13.98
2023-12-09T12:06:22.722Z,7.97
2023-12-09T12:08:50.542Z,12.23
2023-12-09T12:11:18.304Z,12.60
2023-12-09T12:13:45.382Z,9.32
2023-12-09T12:16:12.908Z,9.32
2023-12-09T12:18:39.840Z,11.90
2023-12-09T12:21:07.128Z,8.37
2023-12-09T12:23:34.365Z,15.35
2023-12-09T12:26:01.055Z,9.00
2023-12-09T12:28:27.799Z,6.68
2023-12-09T12:31:05.453Z,8.75
2023-12-09T12:33:32.606Z,8.13
2023-12-09T12:36:00.366Z,15.80
2023-12-09T12:38:27.709Z,9.18
2023-12-09T12:40:55.216Z,10.13
2023-12-09T12:43:22.162Z,8.18
2023-12-09T12:45:53.106Z,11.37
2023-12-09T12:48:21.168Z,8.18
2023-12-09T12:50:51.347Z,6.95
2023-12-09T12:53:19.116Z,11.52
2023-12-09T12:55:45.930Z,9.27
2023-12-09T12:58:12.540Z,15.50
2023-12-09T13:00:40.324Z,10.15
2023-12-09T13:03:08.402Z,7.68
2023-12-09T13:05:35.937Z,12.13
2023-12-09T13:08:02.812Z,10.32
2023-12-09T13:10:29.405Z,10.57
2023-12-09T13:12:56.081Z,10.52
2023-12-09T13:15:23.009Z,12.07
2023-12-09T13:17:49.799Z,8.25
2023-12-09T13:20:16.528Z,12.02
2023-12-09T13:22:43.151Z,9.60
2023-12-09T13:25:10.802Z,8.60
2023-12-09T13:27:38.479Z,9.38
2023-12-09T13:30:08.032Z,10.65
2023-12-09T13:32:38.321Z,12.25
2023-12-09T13:35:06.704Z,6.90
2023-12-09T13:37:34.054Z,11.10
2023-12-09T13:40:01.096Z,8.95
2023-12-09T13:42:28.775Z,6.97
2023-12-09T13:44:55.658Z,10.50
2023-12-09T13:47:22.287Z,10.67
2023-12-09T13:49:49.181Z,9.20
2023-12-09T13:52:17.247Z,10.13
2023-12-09T13:54:44.530Z,11.13
2023-12-09T13:57:11.547Z,15.00
2023-12-09T13:59:38.385Z,10.77
2023-12-09T14:02:05.140Z,13.15
2023-12-09T14:04:31.835Z,12.73
2023-12-09T14:06:58.655Z,11.30
2023-12-09T14:09:25.293Z,12.88
2023-12-09T14:11:52.030Z,7.37
2023-12-09T14:14:18.672Z,12.15
2023-12-09T14:16:45.384Z,11.43
2023-12-09T14:19:12.266Z,8.55
2023-12-09T14:21:39.412Z,11.23
2023-12-09T14:24:06.703Z,10.23
2023-12-09T14:26:35.636Z,7.25
2023-12-09T14:29:02.599Z,9.85
2023-12-09T14:31:29.245Z,18.88
2023-12-09T14:33:56.452Z,10.05
2023-12-09T14:36:23.402Z,12.67
2023-12-09T14:38:50.420Z,7.80
2023-12-09T14:41:17.065Z,10.85
2023-12-09T14:43:45.667Z,10.50
2023-12-09T14:46:13.350Z,12.55
2023-12-09T14:48:40.218Z,13.17
2023-12-09T14:51:07.788Z,10.30
2023-12-09T14:53:34.653Z,12.27
2023-12-09T14:56:01.938Z,5.55
2023-12-09T14:58:28.714Z,6.68
2023-12-09T15:00:55.471Z,6.83
2023-12-09T15:03:22.281Z,10.52
2023-12-09T15:05:49.134Z,7.05
2023-12-09T15:08:15.781Z,8.70
2023-12-09T15:10:42.384Z,9.15
2023-12-09T15:13:09.013Z,6.03
2023-12-09T15:15:35.650Z,5.32
2023-12-09T15:18:02.529Z,12.15
2023-12-09T15:20:29.240Z,9.02
2023-12-09T15:22:55.881Z,6.30
2023-12-09T15:25:22.525Z,7.07
2023-12-09T15:27:49.613Z,6.75
2023-12-09T15:30:16.489Z,7.07
2023-12-09T15:32:45.460Z,9.40
2023-12-09T15:35:12.485Z,5.55
2023-12-09T15:37:39.106Z,6.90
2023-12-09T15:40:10.299Z,6.88
2023-12-09T15:42:37.539Z,5.75
2023-12-09T15:45:05.775Z,7.93
2023-12-09T15:47:32.488Z,5.93
2023-12-09T15:49:59.168Z,7.77
2023-12-09T15:52:26.150Z,6.32
2023-12-09T15:54:53.042Z,8.05
2023-12-09T15:57:20.189Z,8.25
2023-12-09T15:59:47.872Z,19.25
2023-12-09T16:02:14.841Z,10.27
2023-12-09T16:04:41.697Z,10.30
2023-12-09T16:07:08.342Z,11.07
2023-12-09T16:09:40.727Z,11.98
2023-12-09T16:12:08.209Z,9.73
2023-12-09T16:14:36.177Z,9.60
2023-12-09T16:17:03.305Z,11.18
2023-12-09T16:19:30.036Z,6.82
2023-12-09T16:21:56.841Z,6.75
2023-12-09T16:24:28.254Z,9.65
2023-12-09T16:26:56.934Z,7.63
2023-12-09T16:29:24.188Z,10.40
2023-12-09T16:31:50.960Z,10.18
2023-12-09T16:34:17.830Z,9.82
2023-12-09T16:36:44.701Z,8.55
2023-12-09T16:39:14.095Z,7.70
2023-12-09T16:41:41.227Z,9.23
2023-12-09T16:44:11.147Z,8.88
2023-12-09T16:46:39.029Z,8.20
2023-12-09T16:49:06.061Z,8.10
2023-12-09T16:51:32.732Z,18.38
2023-12-09T16:53:59.377Z,11.05
2023-12-09T16:56:26.680Z,7.20
2023-12-09T16:58:53.436Z,8.25
2023-12-09T17:01:20.093Z,8.38
2023-12-09T17:03:47.419Z,9.50
2023-12-09T17:06:14.601Z,8.65
2023-12-09T17:08:41.432Z,7.68
2023-12-09T17:11:08.127Z,7.53
2023-12-09T17:13:34.749Z,8.18
2023-12-09T17:16:01.417Z,7.83
2023-12-09T17:18:28.333Z,6.78
2023-12-09T17:20:55.354Z,9.75
2023-12-09T17:23:22.025Z,6.57
2023-12-09T17:25:48.675Z,7.05
2023-12-09T17:28:15.328Z,7.13
2023-12-09T17:30:42.033Z,8.57
2023-12-09T17:33:09.217Z,10.63
2023-12-09T17:35:35.989Z,6.72
2023-12-09T17:38:03.264Z,7.15
2023-12-09T17:40:29.897Z,7.03
2023-12-09T17:42:56.718Z,7.07
2023-12-09T17:45:23.713Z,7.53
2023-12-09T17:47:50.445Z,7.18
2023-12-09T17:50:17.516Z,8.68
2023-12-09T17:52:44.356Z,9.07
2023-12-09T17:55:11.026Z,8.25
2023-12-09T17:57:37.800Z,9.02
2023-12-09T18:00:05.289Z,8.23
2023-12-09T18:02:32.086Z,8.05
2023-12-09T18:04:58.814Z,8.90
2023-12-09T18:07:26.306Z,7.43
2023-12-09T18:09:52.971Z,9.07
2023-12-09T18:12:19.587Z,7.20
2023-12-09T18:14:46.661Z,7.70
2023-12-09T18:17:14.191Z,6.47
2023-12-09T18:19:41.067Z,6.70
2023-12-09T18:22:07.815Z,8.05
2023-12-09T18:24:34.637Z,7.00
2023-12-09T18:27:01.483Z,7.75
2023-12-09T18:29:28.732Z,7.50
2023-12-09T18:31:55.398Z,9.45
2023-12-09T18:34:22.069Z,7.50
2023-12-09T18:36:49.060Z,8.57
2023-12-09T18:39:15.811Z,8.93
2023-12-09T18:41:42.465Z,9.53
2023-12-09T18:44:09.102Z,8.88
2023-12-09T18:46:35.787Z,11.18
2023-12-09T18:49:02.518Z,12.38
2023-12-09T18:51:29.202Z,11.63
2023-12-09T18:53:55.809Z,9.73
2023-12-09T18:56:23.631Z,9.45
2023-12-09T18:58:50.197Z,10.25
2023-12-09T19:01:16.942Z,9.68
2023-12-09T19:03:43.734Z,11.88
2023-12-09T19:06:10.951Z,9.93
2023-12-09T19:08:38.763Z,12.65
2023-12-09T19:11:05.770Z,11.07
2023-12-09T19:13:32.731Z,13.02
2023-12-09T19:15:59.385Z,13.05
2023-12-09T19:18:26.489Z,14.57
2023-12-09T19:20:53.197Z,16.15
2023-12-09T19:23:19.869Z,15.80
2023-12-09T19:25:46.644Z,15.40
2023-12-09T19:28:13.313Z,13.75
2023-12-09T19:30:39.935Z,19.47
2023-12-09T19:33:06.763Z,23.40
2023-12-09T19:35:33.485Z,16.50
2023-12-09T19:38:00.187Z,19.88
2023-12-09T19:40:27.217Z,20.65
2023-12-09T19:42:56.556Z,17.80
2023-12-09T19:45:26.542Z,27.00
2023-12-09T19:47:57.192Z,14.48
2023-12-09T19:50:25.023Z,18.35
2023-12-09T19:52:52.053Z,17.67
2023-12-09T19:55:18.702Z,14.63
2023-12-09T19:57:45.687Z,27.92
2023-12-09T20:00:15.742Z,19.92
2023-12-09T20:02:42.942Z,39.00
2023-12-09T20:05:09.680Z,25.80
2023-12-09T20:07:36.393Z,18.53
2023-12-09T20:10:03.209Z,23.58
2023-12-09T20:12:30.037Z,16.17
2023-12-09T20:14:56.802Z,27.77
2023-12-09T20:17:23.801Z,19.63
2023-12-09T20:19:50.494Z,19.97
2023-12-09T20:22:17.481Z,25.23
2023-12-09T20:24:45.093Z,26.27
2023-12-09T20:27:12.086Z,26.17
2023-12-09T20:29:38.760Z,27.63
2023-12-09T20:32:05.820Z,22.10
2023-12-09T20:34:32.663Z,22.83
2023-12-09T20:37:00.438Z,18.15
2023-12-09T20:39:27.126Z,19.92
2023-12-09T20:41:54.106Z,23.13
2023-12-09T20:44:20.751Z,21.40
2023-12-09T20:46:47.619Z,21.83
2023-12-09T20:49:17.915Z,24.65
2023-12-09T20:51:45.849Z,21.58
2023-12-09T20:54:12.964Z,16.85
2023-12-09T20:56:39.817Z,20.00
2023-12-09T20:59:08.227Z,21.40
2023-12-09T21:01:42.697Z,20.15
2023-12-09T21:04:09.444Z,23.70
2023-12-09T21:06:36.840Z,22.30
2023-12-09T21:09:05.293Z,23.97
2023-12-09T21:11:35.019Z,17.10
2023-12-09T21:14:02.340Z,18.58
2023-12-09T21:16:28.940Z,20.67
2023-12-09T21:18:56.180Z,15.50
2023-12-09T21:21:23.081Z,15.33
2023-12-09T21:23:50.206Z,18.88
2023-12-09T21:26:17.137Z,21.85
2023-12-09T21:28:43.761Z,19.17
2023-12-09T21:31:13.913Z,25.00
2023-12-09T21:33:41.236Z,22.00
2023-12-09T21:36:17.020Z,20.52
2023-12-09T21:38:44.070Z,21.23
2023-12-09T21:41:19.113Z,18.05
2023-12-09T21:43:46.231Z,20.42
2023-12-09T21:46:13.031Z,22.00
2023-12-09T21:48:39.759Z,12.38
2023-12-09T21:51:07.080Z,21.95
2023-12-09T21:53:34.004Z,20.73
2023-12-09T21:56:00.702Z,20.92
2023-12-09T21:58:28.423Z,19.43
2023-12-09T22:00:55.127Z,24.83
2023-12-09T22:03:21.876Z,24.10
2023-12-09T22:05:48.535Z,15.05
2023-12-09T22:08:15.161Z,13.15
2023-12-09T22:10:41.831Z,23.43
2023-12-09T22:13:08.553Z,17.08
2023-12-09T22:15:37.411Z,15.25
2023-12-09T22:18:04.427Z,22.52
2023-12-09T22:20:32.029Z,16.77
2023-12-09T22:22:58.964Z,16.47
2023-12-09T22:25:25.759Z,17.98
2023-12-09T22:27:52.405Z,20.02
2023-12-09T22:30:19.274Z,20.17
2023-12-09T22:32:45.975Z,21.08
2023-12-09T22:35:12.573Z,17.83
2023-12-09T22:37:40.767Z,20.08
2023-12-09T22:40:08.681Z,16.88
2023-12-09T22:42:36.685Z,20.58
2023-12-09T22:45:04.683Z,25.92
2023-12-09T22:47:32.138Z,20.23
2023-12-09T22:49:58.837Z,20.02
2023-12-09T22:52:25.803Z,27.10
2023-12-09T22:54:53.763Z,20.63
2023-12-09T22:57:20.418Z,15.43
2023-12-09T22:59:47.055Z,23.60
2023-12-09T23:02:13.662Z,18.85
2023-12-09T23:04:40.404Z,23.27
2023-12-09T23:07:07.137Z,26.40
2023-12-09T23:09:33.843Z,22.38
2023-12-09T23:12:00.490Z,24.53
2023-12-09T23:14:27.148Z,23.80
2023-12-09T23:16:53.749Z,17.10
2023-12-09T23:19:20.497Z,20.88
2023-12-09T23:21:47.205Z,21.73
2023-12-09T23:24:13.897Z,17.43
2023-12-09T23:26:40.597Z,22.17
2023-12-09T23:29:08.598Z,22.05
2023-12-09T23:31:41.046Z,21.73
2023-12-09T23:34:08.952Z,22.15
2023-12-09T23:36:36.022Z,19.40
2023-12-09T23:39:02.758Z,20.17
2023-12-09T23:41:29.740Z,23.13
2023-12-09T23:43:56.514Z,23.95
2023-12-09T23:46:23.343Z,17.33
2023-12-09T23:48:50.133Z,23.47
2023-12-09T23:51:16.930Z,20.95
2023-12-09T23:53:43.623Z,20.23
2023-12-09T23:56:10.317Z,21.80
2023-12-09T23:58:37.076Z,27.45
